createdAt,value
2018-01-19T00:00:12.196Z,14.03
2018-01-19T00:02:40.316Z,11.60
2018-01-19T00:05:08.452Z,6.00
2018-01-19T00:07:36.609Z,11.70
2018-01-19T00:10:05.666Z,10.57
2018-01-19T00:12:33.784Z,15.93
2018-01-19T00:15:01.926Z,15.53
2018-01-19T00:17:30.050Z,12.70
2018-01-19T00:19:58.201Z,9.77
2018-01-19T00:22:26.321Z,12.30
2018-01-19T00:24:54.444Z,10.67
2018-01-19T00:27:22.582Z,12.87
2018-01-19T00:29:50.775Z,9.17
2018-01-19T00:32:18.912Z,8.77
2018-01-19T00:34:47.053Z,8.57
2018-01-19T00:37:15.173Z,8.97
2018-01-19T00:39:43.288Z,8.17
2018-01-19T00:42:11.457Z,14.40
2018-01-19T00:44:39.616Z,9.83
2018-01-19T00:47:07.781Z,10.47
2018-01-19T00:49:36.166Z,11.30
2018-01-19T00:52:04.289Z,14.63
2018-01-19T00:54:32.419Z,7.37
2018-01-19T00:57:00.535Z,16.50
2018-01-19T00:59:28.688Z,10.67
2018-01-19T01:01:56.809Z,10.70
2018-01-19T01:04:25.711Z,9.60
2018-01-19T01:06:53.836Z,12.03
2018-01-19T01:09:21.990Z,14.10
2018-01-19T01:11:50.116Z,10.07
2018-01-19T01:14:18.268Z,9.17
2018-01-19T01:16:46.407Z,8.30
2018-01-19T01:19:14.602Z,4.87
2018-01-19T01:21:42.752Z,8.38
2018-01-19T01:24:10.873Z,9.88
2018-01-19T01:26:39.849Z,6.12
2018-01-19T01:29:08.032Z,10.40
2018-01-19T01:31:36.181Z,7.75
2018-01-19T01:34:04.306Z,5.45
2018-01-19T01:36:32.456Z,6.78
2018-01-19T01:39:00.576Z,4.90
2018-01-19T01:41:28.706Z,5.80
2018-01-19T01:43:57.613Z,4.10
2018-01-19T01:46:26.578Z,4.10
2018-01-19T01:49:06.569Z,5.55
2018-01-19T01:51:34.704Z,3.75
2018-01-19T01:54:02.821Z,3.95
2018-01-19T01:56:31.040Z,3.12
2018-01-19T01:58:59.176Z,2.15
2018-01-19T02:01:27.289Z,2.05
2018-01-19T02:03:55.463Z,5.35
2018-01-19T02:06:23.587Z,4.30
2018-01-19T02:08:51.739Z,5.40
2018-01-19T02:11:19.860Z,1.90
2018-01-19T02:13:47.969Z,2.72
2018-01-19T02:16:16.080Z,1.30
2018-01-19T02:18:44.245Z,1.30
2018-01-19T02:21:32.171Z,2.22
2018-01-19T02:24:00.350Z,1.20
2018-01-19T02:26:28.531Z,1.23
2018-01-19T02:28:56.662Z,1.23
2018-01-19T02:31:25.552Z,2.15
2018-01-19T02:33:53.754Z,1.30
2018-01-19T02:36:21.881Z,1.15
2018-01-19T02:38:50.755Z,1.30
2018-01-19T02:41:18.888Z,1.17
2018-01-19T02:43:47.046Z,1.92
2018-01-19T02:46:15.165Z,1.20
2018-01-19T02:48:43.470Z,1.30
2018-01-19T02:51:11.704Z,1.92
2018-01-19T02:53:39.817Z,1.30
2018-01-19T02:56:08.813Z,2.20
2018-01-19T02:58:36.912Z,1.27
2018-01-19T03:01:05.028Z,3.17
2018-01-19T03:03:33.168Z,1.48
2018-01-19T03:06:01.323Z,1.85
2018-01-19T03:08:29.433Z,1.58
2018-01-19T03:10:57.554Z,2.25
2018-01-19T03:13:25.681Z,1.20
2018-01-19T03:15:53.809Z,1.33
2018-01-19T03:18:21.942Z,1.50
2018-01-19T03:20:50.213Z,2.03
2018-01-19T03:23:18.320Z,1.70
2018-01-19T03:25:46.468Z,2.00
2018-01-19T03:28:14.603Z,1.35
2018-01-19T03:30:42.744Z,1.40
2018-01-19T03:33:10.889Z,2.17
2018-01-19T03:35:39.010Z,1.80
2018-01-19T03:38:07.133Z,1.40
2018-01-19T03:40:35.310Z,1.87
2018-01-19T03:43:03.421Z,1.37
2018-01-19T03:45:32.318Z,1.62
2018-01-19T03:48:00.442Z,1.70
2018-01-19T03:50:28.597Z,2.62
2018-01-19T03:52:56.776Z,1.80
2018-01-19T03:55:24.950Z,1.50
2018-01-19T03:57:53.891Z,1.40
2018-01-19T04:00:22.020Z,1.50
2018-01-19T04:02:50.134Z,1.20
2018-01-19T04:05:19.035Z,1.50
2018-01-19T04:07:47.168Z,3.05
2018-01-19T04:10:15.292Z,2.17
2018-01-19T04:12:43.440Z,3.30
2018-01-19T04:15:11.594Z,2.28
2018-01-19T04:17:40.493Z,1.70
2018-01-19T04:20:08.617Z,1.70
2018-01-19T04:22:36.778Z,2.97
2018-01-19T04:25:04.891Z,1.90
2018-01-19T04:27:33.068Z,1.85
2018-01-19T04:30:01.196Z,1.98
2018-01-19T04:32:29.357Z,2.22
2018-01-19T04:34:57.512Z,2.10
2018-01-19T04:37:25.664Z,1.90
2018-01-19T04:39:53.789Z,2.03
2018-01-19T04:42:21.950Z,2.35
2018-01-19T04:44:50.056Z,2.37
2018-01-19T04:47:18.214Z,1.85
2018-01-19T04:49:46.328Z,2.20
2018-01-19T04:52:14.461Z,2.42
2018-01-19T04:54:42.595Z,4.62
2018-01-19T04:57:10.756Z,2.90
2018-01-19T04:59:38.874Z,3.20
2018-01-19T05:02:07.017Z,2.70
2018-01-19T05:04:35.897Z,3.37
2018-01-19T05:07:04.034Z,3.97
2018-01-19T05:09:32.937Z,2.95
2018-01-19T05:12:01.069Z,2.25
2018-01-19T05:14:29.185Z,2.33
2018-01-19T05:16:57.340Z,2.70
2018-01-19T05:19:25.473Z,3.55
2018-01-19T05:21:53.607Z,2.65
2018-01-19T05:24:21.738Z,3.70
2018-01-19T05:26:50.750Z,3.72
2018-01-19T05:29:18.872Z,2.62
2018-01-19T05:31:47.020Z,3.10
2018-01-19T05:34:15.274Z,3.95
2018-01-19T05:36:44.167Z,4.90
2018-01-19T05:39:12.275Z,4.85
2018-01-19T05:41:40.432Z,3.85
2018-01-19T05:44:08.549Z,4.82
2018-01-19T05:46:36.711Z,2.85
2018-01-19T05:49:05.596Z,3.95
2018-01-19T05:51:34.583Z,3.05
2018-01-19T05:54:03.474Z,3.92
2018-01-19T05:56:32.378Z,3.80
2018-01-19T05:59:00.518Z,4.90
2018-01-19T06:01:28.648Z,4.87
2018-01-19T06:03:56.800Z,3.22
2018-01-19T06:06:24.932Z,4.90
2018-01-19T06:08:53.097Z,2.92
2018-01-19T06:11:21.233Z,2.50
2018-01-19T06:13:49.371Z,3.55
2018-01-19T06:16:17.504Z,2.90
2018-01-19T06:18:45.627Z,3.37
2018-01-19T06:21:13.922Z,3.45
2018-01-19T06:23:42.063Z,7.30
2018-01-19T06:26:10.988Z,2.78
2018-01-19T06:28:39.097Z,2.58
2018-01-19T06:31:08.005Z,4.22
2018-01-19T06:33:36.915Z,3.50
2018-01-19T06:36:05.062Z,3.65
2018-01-19T06:38:33.372Z,4.22
2018-01-19T06:41:01.623Z,3.35
2018-01-19T06:43:29.737Z,2.85
2018-01-19T06:45:57.878Z,3.67
2018-01-19T06:48:26.006Z,3.53
2018-01-19T06:50:54.159Z,3.53
2018-01-19T06:53:22.276Z,3.55
2018-01-19T06:55:50.410Z,3.17
2018-01-19T06:58:18.517Z,3.28
2018-01-19T07:00:46.648Z,2.90
2018-01-19T07:03:14.768Z,3.12
2018-01-19T07:05:42.903Z,2.50
2018-01-19T07:08:11.349Z,2.80
2018-01-19T07:10:39.456Z,2.87
2018-01-19T07:13:08.369Z,2.60
2018-01-19T07:15:36.526Z,2.65
2018-01-19T07:18:05.434Z,2.67
2018-01-19T07:20:33.551Z,2.65
2018-01-19T07:23:01.689Z,2.20
2018-01-19T07:25:29.804Z,2.55
2018-01-19T07:27:57.947Z,5.18
2018-01-19T07:30:26.064Z,3.87
2018-01-19T07:32:54.973Z,2.90
2018-01-19T07:35:23.104Z,3.58
2018-01-19T07:37:51.239Z,2.87
2018-01-19T07:40:19.362Z,3.10
2018-01-19T07:42:48.544Z,2.85
2018-01-19T07:45:16.667Z,3.90
2018-01-19T07:47:44.820Z,3.12
2018-01-19T07:50:12.931Z,3.55
2018-01-19T07:52:41.068Z,3.72
2018-01-19T07:55:09.193Z,3.55
2018-01-19T07:57:37.341Z,3.70
2018-01-19T08:00:05.540Z,3.40
2018-01-19T08:02:34.837Z,3.60
2018-01-19T08:05:02.943Z,3.65
2018-01-19T08:07:31.076Z,3.87
2018-01-19T08:09:59.315Z,4.75
2018-01-19T08:12:27.616Z,3.22
2018-01-19T08:14:55.998Z,3.20
2018-01-19T08:17:24.247Z,3.17
2018-01-19T08:19:52.637Z,2.90
2018-01-19T08:22:20.938Z,7.20
2018-01-19T08:24:49.998Z,3.20
2018-01-19T08:27:18.630Z,4.30
2018-01-19T08:29:47.019Z,3.10
2018-01-19T08:32:16.110Z,3.50
2018-01-19T08:34:45.386Z,3.77
2018-01-19T08:37:13.847Z,4.50
2018-01-19T08:39:42.177Z,5.40
2018-01-19T08:42:10.682Z,5.00
2018-01-19T08:44:38.930Z,4.30
2018-01-19T08:47:07.089Z,5.57
2018-01-19T08:49:35.549Z,4.37
2018-01-19T08:52:03.817Z,6.22
2018-01-19T08:54:32.014Z,5.00
2018-01-19T08:57:00.360Z,7.70
2018-01-19T08:59:28.492Z,4.35
2018-01-19T09:01:56.672Z,5.32
2018-01-19T09:04:24.810Z,7.00
2018-01-19T09:06:52.953Z,4.82
2018-01-19T09:09:21.844Z,3.53
2018-01-19T09:11:50.745Z,4.45
2018-01-19T09:14:18.872Z,2.85
2018-01-19T09:16:47.029Z,3.17
2018-01-19T09:19:15.931Z,3.10
2018-01-19T09:21:44.080Z,5.57
2018-01-19T09:24:12.197Z,3.95
2018-01-19T09:26:41.088Z,3.30
2018-01-19T09:29:09.221Z,3.35
2018-01-19T09:31:37.353Z,3.65
2018-01-19T09:34:05.489Z,4.05
2018-01-19T09:36:33.640Z,3.20
2018-01-19T09:39:01.800Z,4.53
2018-01-19T09:41:29.924Z,3.47
2018-01-19T09:43:58.070Z,3.25
2018-01-19T09:46:26.218Z,3.40
2018-01-19T09:48:55.149Z,5.10
2018-01-19T09:51:24.116Z,3.17
2018-01-19T09:53:52.309Z,4.70
2018-01-19T09:56:21.200Z,5.60
2018-01-19T09:58:49.367Z,3.10
2018-01-19T10:01:18.260Z,3.17
2018-01-19T10:03:47.164Z,3.20
2018-01-19T10:06:15.300Z,6.03
2018-01-19T10:08:44.195Z,3.75
2018-01-19T10:11:13.105Z,2.85
2018-01-19T10:13:41.223Z,2.40
2018-01-19T10:16:09.365Z,5.97
2018-01-19T10:18:37.482Z,4.85
2018-01-19T10:21:05.622Z,4.60
2018-01-19T10:23:33.756Z,3.15
2018-01-19T10:26:01.877Z,2.37
2018-01-19T10:28:30.000Z,4.00
2018-01-19T10:30:58.120Z,5.63
2018-01-19T10:33:26.256Z,2.77
2018-01-19T10:35:54.380Z,2.57
2018-01-19T10:38:22.519Z,3.10
2018-01-19T10:40:50.653Z,5.13
2018-01-19T10:43:18.785Z,3.30
2018-01-19T10:45:46.920Z,4.17
2018-01-19T10:48:15.060Z,2.30
2018-01-19T10:50:43.183Z,2.55
2018-01-19T10:53:11.332Z,3.10
2018-01-19T10:55:39.464Z,2.42
2018-01-19T10:58:07.581Z,3.85
2018-01-19T11:00:35.731Z,5.12
2018-01-19T11:03:03.848Z,5.30
2018-01-19T11:05:32.849Z,3.37
2018-01-19T11:08:00.973Z,4.90
2018-01-19T11:10:29.122Z,2.65
2018-01-19T11:12:57.258Z,2.55
2018-01-19T11:15:25.733Z,4.60
2018-01-19T11:17:53.850Z,2.30
2018-01-19T11:20:21.990Z,2.20
2018-01-19T11:22:50.892Z,3.65
2018-01-19T11:25:19.832Z,3.30
2018-01-19T11:27:48.051Z,3.83
2018-01-19T11:30:17.047Z,4.05
2018-01-19T11:32:46.001Z,2.95
2018-01-19T11:35:14.120Z,2.47
2018-01-19T11:37:42.257Z,4.17
2018-01-19T11:40:10.378Z,2.80
2018-01-19T11:42:38.516Z,4.30
2018-01-19T11:45:06.640Z,15.95
2018-01-19T11:47:34.787Z,1.67
2018-01-19T11:50:02.920Z,3.40
2018-01-19T11:52:31.830Z,1.70
2018-01-19T11:55:00.066Z,3.13
2018-01-19T11:57:29.053Z,2.37
2018-01-19T11:59:57.227Z,2.53
2018-01-19T12:02:25.369Z,2.72
2018-01-19T12:04:53.523Z,2.45
2018-01-19T12:07:21.640Z,3.05
2018-01-19T12:09:49.768Z,1.80
2018-01-19T12:12:17.892Z,1.90
2018-01-19T12:14:46.796Z,3.70
2018-01-19T12:17:15.683Z,2.58
2018-01-19T12:19:44.601Z,2.20
2018-01-19T12:22:13.090Z,3.47
2018-01-19T12:24:41.202Z,2.77
2018-01-19T12:27:09.341Z,3.25
2018-01-19T12:29:37.464Z,2.60
2018-01-19T12:32:06.376Z,3.55
2018-01-19T12:34:34.495Z,4.43
2018-01-19T12:37:02.637Z,2.28
2018-01-19T12:39:30.868Z,1.80
2018-01-19T12:41:59.121Z,2.75
2018-01-19T12:44:27.527Z,2.67
2018-01-19T12:46:56.462Z,3.53
2018-01-19T12:49:24.682Z,3.58
2018-01-19T12:51:55.510Z,3.25
2018-01-19T12:54:24.794Z,3.83
2018-01-19T12:56:52.984Z,3.37
2018-01-19T12:59:22.190Z,3.37
2018-01-19T13:01:51.124Z,2.20
2018-01-19T13:04:19.305Z,3.97
2018-01-19T13:06:47.623Z,4.80
2018-01-19T13:09:15.886Z,2.47
2018-01-19T13:11:45.602Z,2.50
2018-01-19T13:14:13.854Z,6.80
2018-01-19T13:16:42.810Z,3.58
2018-01-19T13:19:11.033Z,2.95
2018-01-19T13:21:39.249Z,2.20
2018-01-19T13:24:07.392Z,2.70
2018-01-19T13:26:35.607Z,2.13
2018-01-19T13:29:03.961Z,2.00
2018-01-19T13:31:32.271Z,2.47
2018-01-19T13:34:00.385Z,3.53
2018-01-19T13:36:29.268Z,2.63
2018-01-19T13:38:57.738Z,3.07
2018-01-19T13:41:26.633Z,2.77
2018-01-19T13:43:55.520Z,3.67
2018-01-19T13:46:24.420Z,3.37
2018-01-19T13:48:52.531Z,3.70
2018-01-19T13:51:20.865Z,1.97
2018-01-19T13:53:49.733Z,2.77
2018-01-19T13:56:17.990Z,3.60
2018-01-19T13:58:46.117Z,4.50
2018-01-19T14:01:14.257Z,2.13
2018-01-19T14:03:42.380Z,7.70
2018-01-19T14:06:10.501Z,7.37
2018-01-19T14:08:38.636Z,2.00
2018-01-19T14:11:06.829Z,4.13
2018-01-19T14:13:34.961Z,2.03
2018-01-19T14:16:03.080Z,1.50
2018-01-19T14:18:31.252Z,4.70
2018-01-19T14:21:00.121Z,4.17
2018-01-19T14:23:29.441Z,2.67
2018-01-19T14:25:57.707Z,2.43
2018-01-19T14:28:26.603Z,3.03
2018-01-19T14:30:55.489Z,3.60
2018-01-19T14:33:24.428Z,2.00
2018-01-19T14:35:52.604Z,3.77
2018-01-19T14:38:21.599Z,3.77
2018-01-19T14:40:49.916Z,2.30
2018-01-19T14:43:18.056Z,1.77
2018-01-19T14:45:46.181Z,1.83
2018-01-19T14:48:14.304Z,3.40
2018-01-19T14:50:42.440Z,2.20
2018-01-19T14:53:10.553Z,4.05
2018-01-19T14:55:38.689Z,4.10
2018-01-19T14:58:07.710Z,2.13
2018-01-19T15:00:36.744Z,2.85
2018-01-19T15:03:05.697Z,1.50
2018-01-19T15:05:34.706Z,2.55
2018-01-19T15:08:02.928Z,3.67
2018-01-19T15:10:32.585Z,2.33
2018-01-19T15:13:00.775Z,4.15
2018-01-19T15:15:28.888Z,5.35
2018-01-19T15:17:57.029Z,3.00
2018-01-19T15:20:25.209Z,2.65
2018-01-19T15:22:53.334Z,2.10
2018-01-19T15:25:21.456Z,4.97
2018-01-19T15:27:49.600Z,4.80
2018-01-19T15:30:17.712Z,3.90
2018-01-19T15:32:45.863Z,2.10
2018-01-19T15:35:14.004Z,2.50
2018-01-19T15:37:42.141Z,3.70
2018-01-19T15:40:10.288Z,3.50
2018-01-19T15:42:38.424Z,3.07
2018-01-19T15:45:06.552Z,3.90
2018-01-19T15:47:34.765Z,5.23
2018-01-19T15:50:03.705Z,2.33
2018-01-19T15:52:31.811Z,2.67
2018-01-19T15:55:00.786Z,2.10
2018-01-19T15:57:28.897Z,2.73
2018-01-19T15:59:57.145Z,3.90
2018-01-19T16:02:25.356Z,5.60
2018-01-19T16:04:54.382Z,3.10
2018-01-19T16:07:22.563Z,2.80
2018-01-19T16:09:51.520Z,3.12
2018-01-19T16:12:19.644Z,2.45
2018-01-19T16:14:47.781Z,2.30
2018-01-19T16:17:15.952Z,2.97
2018-01-19T16:19:44.100Z,4.65
2018-01-19T16:22:12.233Z,2.78
2018-01-19T16:24:40.353Z,4.35
2018-01-19T16:27:08.503Z,2.80
2018-01-19T16:29:37.301Z,5.03
2018-01-19T16:32:05.452Z,4.12
2018-01-19T16:34:33.568Z,3.72
2018-01-19T16:37:03.418Z,6.00
2018-01-19T16:39:32.406Z,3.33
2018-01-19T16:42:00.565Z,5.55
2018-01-19T16:44:29.452Z,7.10
2018-01-19T16:46:57.583Z,3.72
2018-01-19T16:49:26.104Z,5.00
2018-01-19T16:51:55.025Z,10.77
2018-01-19T16:54:23.168Z,3.90
2018-01-19T16:56:52.052Z,6.25
2018-01-19T16:59:20.188Z,3.42
2018-01-19T17:01:48.413Z,6.00
2018-01-19T17:04:16.580Z,4.15
2018-01-19T17:06:44.716Z,4.75
2018-01-19T17:09:12.857Z,3.60
2018-01-19T17:11:41.116Z,7.18
2018-01-19T17:14:09.745Z,14.05
2018-01-19T17:16:38.968Z,14.57
2018-01-19T17:19:07.704Z,19.77
2018-01-19T17:21:37.812Z,15.95
2018-01-19T17:24:07.293Z,13.68
2018-01-19T17:26:35.579Z,6.87
2018-01-19T17:29:03.958Z,4.47
2018-01-19T17:31:32.722Z,3.50
2018-01-19T17:34:00.955Z,8.50
2018-01-19T17:36:29.473Z,12.35
2018-01-19T17:38:57.780Z,4.68
2018-01-19T17:41:26.133Z,6.25
2018-01-19T17:43:54.457Z,3.53
2018-01-19T17:46:22.772Z,5.70
2018-01-19T17:48:51.325Z,3.97
2018-01-19T17:51:19.487Z,6.90
2018-01-19T17:53:47.748Z,6.87
2018-01-19T17:56:15.893Z,4.20
2018-01-19T17:58:44.141Z,2.90
2018-01-19T18:01:13.088Z,6.40
2018-01-19T18:03:41.467Z,5.75
2018-01-19T18:06:09.715Z,3.45
2018-01-19T18:08:37.855Z,4.60
2018-01-19T18:11:06.734Z,3.72
2018-01-19T18:13:35.632Z,3.70
2018-01-19T18:16:03.789Z,5.05
2018-01-19T18:18:33.414Z,3.90
2018-01-19T18:21:01.564Z,5.93
2018-01-19T18:23:29.736Z,3.53
2018-01-19T18:25:57.969Z,4.00
2018-01-19T18:28:26.124Z,2.95
2018-01-19T18:30:54.241Z,3.37
2018-01-19T18:33:22.389Z,3.75
2018-01-19T18:35:50.532Z,3.35
2018-01-19T18:38:18.770Z,3.70
2018-01-19T18:40:47.664Z,7.82
2018-01-19T18:43:15.842Z,4.05
2018-01-19T18:45:44.022Z,6.68
2018-01-19T18:48:12.163Z,3.25
2018-01-19T18:50:40.309Z,3.70
2018-01-19T18:53:09.965Z,7.05
2018-01-19T18:55:38.089Z,4.18
2018-01-19T18:58:06.221Z,8.88
2018-01-19T19:00:34.445Z,5.05
2018-01-19T19:03:02.625Z,4.32
2018-01-19T19:05:30.777Z,6.22
2018-01-19T19:07:58.972Z,5.12
2018-01-19T19:10:27.397Z,6.45
2018-01-19T19:12:55.688Z,7.35
2018-01-19T19:15:24.184Z,4.87
2018-01-19T19:17:52.422Z,6.75
2018-01-19T19:20:20.544Z,7.78
2018-01-19T19:22:49.444Z,6.53
2018-01-19T19:25:18.402Z,4.87
2018-01-19T19:27:46.526Z,8.55
2018-01-19T19:30:15.060Z,4.68
2018-01-19T19:32:43.986Z,5.55
2018-01-19T19:35:14.048Z,8.68
2018-01-19T19:37:42.423Z,4.78
2018-01-19T19:40:10.782Z,4.95
2018-01-19T19:42:39.104Z,4.82
2018-01-19T19:45:08.457Z,4.78
2018-01-19T19:47:36.708Z,3.87
2018-01-19T19:50:04.879Z,4.90
2018-01-19T19:52:33.014Z,4.82
2018-01-19T19:55:01.135Z,7.28
2018-01-19T19:57:29.312Z,6.53
2018-01-19T19:59:57.463Z,6.45
2018-01-19T20:02:26.404Z,5.25
2018-01-19T20:04:54.512Z,5.43
2018-01-19T20:07:23.467Z,6.20
2018-01-19T20:09:51.632Z,5.68
2018-01-19T20:12:19.786Z,5.60
2018-01-19T20:14:47.940Z,5.70
2018-01-19T20:17:16.131Z,5.03
2018-01-19T20:19:44.311Z,5.70
2018-01-19T20:22:12.517Z,6.95
2018-01-19T20:24:40.618Z,6.35
2018-01-19T20:27:08.782Z,10.68
2018-01-19T20:29:37.672Z,8.30
2018-01-19T20:32:05.807Z,8.60
2018-01-19T20:34:34.056Z,7.97
2018-01-19T20:37:02.696Z,8.43
2018-01-19T20:39:30.968Z,6.85
2018-01-19T20:41:59.227Z,7.28
2018-01-19T20:44:27.344Z,8.05
2018-01-19T20:46:55.500Z,7.65
2018-01-19T20:49:23.676Z,7.65
2018-01-19T20:51:51.785Z,9.15
2018-01-19T20:54:20.331Z,6.87
2018-01-19T20:56:48.510Z,7.00
2018-01-19T20:59:16.772Z,7.03
2018-01-19T21:01:44.973Z,6.80
2018-01-19T21:04:13.177Z,6.72
2018-01-19T21:06:41.461Z,6.40
2018-01-19T21:09:09.930Z,8.82
2018-01-19T21:11:38.107Z,6.05
2018-01-19T21:14:06.204Z,6.07
2018-01-19T21:16:34.386Z,8.18
2018-01-19T21:19:02.665Z,6.10
2018-01-19T21:21:30.840Z,6.37
2018-01-19T21:23:59.020Z,6.43
2018-01-19T21:26:27.300Z,6.53
2018-01-19T21:28:55.468Z,7.78
2018-01-19T21:31:23.700Z,6.97
2018-01-19T21:33:52.621Z,6.32
2018-01-19T21:36:20.740Z,6.75
2018-01-19T21:38:48.884Z,7.03
2018-01-19T21:41:17.180Z,7.05
2018-01-19T21:43:45.383Z,7.15
2018-01-19T21:46:14.346Z,7.25
2018-01-19T21:48:42.524Z,5.72
2018-01-19T21:51:10.657Z,6.10
2018-01-19T21:53:38.847Z,5.62
2018-01-19T21:56:07.168Z,8.00
2018-01-19T21:58:36.118Z,5.87
2018-01-19T22:01:04.334Z,5.10
2018-01-19T22:03:33.269Z,4.78
2018-01-19T22:06:01.424Z,5.25
2018-01-19T22:08:29.581Z,5.25
2018-01-19T22:10:57.714Z,5.72
2018-01-19T22:13:26.651Z,7.00
2018-01-19T22:15:54.760Z,8.90
2018-01-19T22:18:23.031Z,6.22
2018-01-19T22:20:51.213Z,7.82
2018-01-19T22:23:21.963Z,8.25
2018-01-19T22:25:50.912Z,7.22
2018-01-19T22:28:19.077Z,9.93
2018-01-19T22:30:47.242Z,8.60
2018-01-19T22:33:15.411Z,10.38
2018-01-19T22:35:43.580Z,12.40
2018-01-19T22:38:11.820Z,12.50
2018-01-19T22:40:40.740Z,11.55
2018-01-19T22:43:08.870Z,13.52
2018-01-19T22:45:37.857Z,13.50
2018-01-19T22:48:06.060Z,11.65
2018-01-19T22:50:34.389Z,14.23
2018-01-19T22:53:02.502Z,13.10
2018-01-19T22:55:30.646Z,14.43
2018-01-19T22:57:59.636Z,17.80
2018-01-19T23:00:27.801Z,14.40
2018-01-19T23:02:55.937Z,16.37
2018-01-19T23:05:24.128Z,16.52
2018-01-19T23:07:52.299Z,14.38
2018-01-19T23:10:20.497Z,15.88
2018-01-19T23:12:48.617Z,12.82
2018-01-19T23:15:16.800Z,12.93
2018-01-19T23:17:44.991Z,14.60
2018-01-19T23:20:13.172Z,14.68
2018-01-19T23:22:41.381Z,13.93
2018-01-19T23:25:09.549Z,16.00
2018-01-19T23:27:37.677Z,16.20
2018-01-19T23:30:06.558Z,13.95
2018-01-19T23:32:34.719Z,13.75
2018-01-19T23:35:02.921Z,16.20
2018-01-19T23:37:31.110Z,13.82
2018-01-19T23:40:00.026Z,14.43
2018-01-19T23:42:28.189Z,15.93
2018-01-19T23:44:56.368Z,17.35
2018-01-19T23:47:24.606Z,15.23
2018-01-19T23:49:53.516Z,17.25
2018-01-19T23:52:21.707Z,16.48
2018-01-19T23:54:49.874Z,16.20
2018-01-19T23:57:18.047Z,14.68
2018-01-19T23:59:46.238Z,15.32
